Time;durP1;ratioP1;P1;durP2;ratioP2;P2;SDS_P1;SDS_P2;PMS_P1;PMS_P2;Temp;Humidity;BMP_temperature;BMP_pressure;BME280_temperature;BME280_humidity;BME280_pressure;Samples;Min_cycle;Max_cycle;Signal;HPM_P1;HPM_P2
2021/09/05 00:02:17;;;;;;;11.45;7.05;;;19.40;64.70;;;;;;5053634;28;20035;-70
2021/09/05 00:04:43;;;;;;;9.93;6.82;;;19.30;64.80;;;;;;5053525;28;20106;-70
2021/09/05 00:07:08;;;;;;;10.45;6.57;;;19.30;64.80;;;;;;5053638;28;20029;-70
2021/09/05 00:09:35;;;;;;;10.60;7.05;;;19.30;64.70;;;;;;5053464;28;20031;-70
2021/09/05 00:12:01;;;;;;;10.18;6.90;;;19.30;64.80;;;;;;5053563;28;20048;-70
2021/09/05 00:14:27;;;;;;;9.80;6.45;;;19.30;64.80;;;;;;5053492;28;20484;-70
2021/09/05 00:16:52;;;;;;;11.07;7.25;;;19.30;64.80;;;;;;5053374;28;20029;-71
2021/09/05 00:19:18;;;;;;;10.13;6.80;;;19.30;64.80;;;;;;5052078;28;20111;-71
2021/09/05 00:21:43;;;;;;;10.35;7.07;;;19.30;64.80;;;;;;5053293;28;20072;-71
2021/09/05 00:24:09;;;;;;;10.60;7.13;;;19.30;64.80;;;;;;5053115;28;20453;-71
2021/09/05 00:26:34;;;;;;;10.65;6.93;;;19.30;64.80;;;;;;5052021;28;20372;-71
2021/09/05 00:29:00;;;;;;;9.23;5.97;;;19.30;64.80;;;;;;5051944;28;20021;-70
2021/09/05 00:31:26;;;;;;;9.82;6.85;;;19.30;64.90;;;;;;5053095;28;20539;-71
2021/09/05 00:33:51;;;;;;;10.27;6.88;;;19.30;64.80;;;;;;5053077;28;20024;-71
2021/09/05 00:36:17;;;;;;;10.13;5.55;;;19.20;64.80;;;;;;5052933;28;20034;-71
2021/09/05 00:38:42;;;;;;;10.77;7.10;;;19.20;64.80;;;;;;5052778;28;20508;-70
2021/09/05 00:41:08;;;;;;;12.48;6.90;;;19.20;64.80;;;;;;5052916;28;20488;-71
2021/09/05 00:43:53;;;;;;;10.18;6.60;;;19.20;64.80;;;;;;5052939;28;20034;-69
2021/09/05 00:46:19;;;;;;;9.13;6.00;;;19.20;64.90;;;;;;5053009;28;20028;-71
2021/09/05 00:48:44;;;;;;;8.90;5.90;;;19.20;64.80;;;;;;5052933;28;20423;-71
2021/09/05 00:51:10;;;;;;;11.90;7.15;;;19.20;64.80;;;;;;5052998;28;20068;-70
2021/09/05 00:53:35;;;;;;;9.23;6.05;;;19.20;64.80;;;;;;5052775;28;20378;-71
2021/09/05 00:56:01;;;;;;;9.88;6.45;;;19.20;64.90;;;;;;5052730;28;20104;-71
2021/09/05 00:58:28;;;;;;;9.65;6.53;;;19.20;64.90;;;;;;5052709;28;20044;-71
2021/09/05 01:00:53;;;;;;;11.07;6.88;;;19.20;64.80;;;;;;5052682;28;20017;-71
2021/09/05 01:03:19;;;;;;;9.27;6.45;;;19.20;64.90;;;;;;5052625;28;20025;-71
2021/09/05 01:05:44;;;;;;;10.65;6.35;;;19.20;64.90;;;;;;5052554;28;20129;-71
2021/09/05 01:08:10;;;;;;;9.85;6.45;;;19.20;64.90;;;;;;5052631;28;20408;-71
2021/09/05 01:10:35;;;;;;;10.75;7.00;;;19.20;64.90;;;;;;5052753;28;20040;-71
2021/09/05 01:13:02;;;;;;;10.57;6.40;;;19.20;64.90;;;;;;5052592;28;20470;-71
2021/09/05 01:15:28;;;;;;;9.65;6.35;;;19.20;64.90;;;;;;5052544;28;20036;-71
2021/09/05 01:17:53;;;;;;;10.18;6.35;;;19.20;64.90;;;;;;5052490;28;20022;-70
2021/09/05 01:20:19;;;;;;;9.63;6.15;;;19.20;64.90;;;;;;5052505;28;20579;-71
2021/09/05 01:22:44;;;;;;;9.93;6.00;;;19.20;64.90;;;;;;5052395;28;20044;-71
2021/09/05 01:25:10;;;;;;;11.40;7.15;;;19.20;64.90;;;;;;5051184;28;20114;-71
2021/09/05 01:27:35;;;;;;;9.85;6.75;;;19.10;64.90;;;;;;5052375;28;20033;-71
2021/09/05 01:30:01;;;;;;;10.88;6.22;;;19.10;64.90;;;;;;5052596;28;20029;-71
2021/09/05 01:32:26;;;;;;;9.20;6.00;;;19.10;65.00;;;;;;5052474;28;20044;-71
2021/09/05 01:34:52;;;;;;;9.88;6.30;;;19.10;65.00;;;;;;5052980;28;20075;-71
2021/09/05 01:37:18;;;;;;;9.27;5.78;;;19.10;65.00;;;;;;5054880;28;20029;-71
2021/09/05 01:39:43;;;;;;;9.80;6.40;;;19.10;65.00;;;;;;5056422;28;20423;-71
2021/09/05 01:42:09;;;;;;;9.57;5.63;;;19.10;64.90;;;;;;5056256;28;20067;-71
2021/09/05 01:44:34;;;;;;;11.38;6.90;;;19.10;64.90;;;;;;5056114;28;20476;-71
2021/09/05 01:47:00;;;;;;;10.70;6.60;;;19.10;65.00;;;;;;5056132;28;20033;-71
2021/09/05 01:49:25;;;;;;;10.55;6.32;;;19.10;65.00;;;;;;5056160;28;20021;-70
2021/09/05 01:51:50;;;;;;;9.25;5.90;;;19.10;64.90;;;;;;5056061;28;20036;-71
2021/09/05 01:54:16;;;;;;;9.07;5.65;;;19.10;65.00;;;;;;5056105;28;20420;-71
2021/09/05 01:56:41;;;;;;;10.93;6.75;;;19.10;65.00;;;;;;5056001;28;20112;-71
2021/09/05 01:59:07;;;;;;;9.52;6.20;;;19.10;65.00;;;;;;5055948;28;20103;-71
2021/09/05 02:01:33;;;;;;;10.13;6.35;;;19.10;65.00;;;;;;5054690;28;20078;-71
2021/09/05 02:03:59;;;;;;;9.25;6.05;;;19.10;65.00;;;;;;5055776;28;20049;-70
2021/09/05 02:06:26;;;;;;;9.82;5.93;;;19.10;65.00;;;;;;5055843;28;20079;-70
2021/09/05 02:08:53;;;;;;;10.05;6.03;;;19.00;65.10;;;;;;5055997;28;20029;-70
2021/09/05 02:11:18;;;;;;;9.70;5.90;;;19.00;65.10;;;;;;5055840;28;20040;-70
2021/09/05 02:13:44;;;;;;;10.50;6.57;;;19.00;65.10;;;;;;5055795;28;20025;-70
2021/09/05 02:16:10;;;;;;;8.38;5.78;;;19.00;65.00;;;;;;5055938;28;20021;-71
2021/09/05 02:18:35;;;;;;;9.38;6.15;;;19.00;65.10;;;;;;5055883;28;20033;-70
2021/09/05 02:21:01;;;;;;;9.35;6.30;;;19.00;65.10;;;;;;5055613;28;20027;-70
2021/09/05 02:23:27;;;;;;;9.57;5.53;;;19.00;65.10;;;;;;5055614;28;20402;-71
2021/09/05 02:25:52;;;;;;;9.48;5.93;;;19.00;65.10;;;;;;5055571;28;20552;-70
2021/09/05 02:28:18;;;;;;;9.27;5.80;;;19.00;65.10;;;;;;5055445;28;20021;-71
2021/09/05 02:30:43;;;;;;;10.35;6.40;;;18.90;65.20;;;;;;5055464;28;20052;-71
2021/09/05 02:33:09;;;;;;;9.77;6.10;;;19.00;65.20;;;;;;5055358;28;20057;-70
2021/09/05 02:35:35;;;;;;;12.15;6.30;;;19.00;65.10;;;;;;5055312;28;20055;-71
2021/09/05 02:38:00;;;;;;;10.18;6.38;;;19.00;65.10;;;;;;5055280;28;20041;-71
2021/09/05 02:40:26;;;;;;;10.63;5.85;;;18.90;65.10;;;;;;5055245;28;20060;-71
2021/09/05 02:42:51;;;;;;;10.25;6.68;;;19.00;65.10;;;;;;5053927;28;20071;-71
2021/09/05 02:45:17;;;;;;;10.48;6.30;;;19.00;65.20;;;;;;5055117;28;20076;-71
2021/09/05 02:47:43;;;;;;;10.38;6.35;;;18.90;65.20;;;;;;5053914;28;20021;-71
2021/09/05 02:50:09;;;;;;;9.10;5.75;;;18.90;65.20;;;;;;5055028;28;20029;-71
2021/09/05 02:52:34;;;;;;;10.40;6.38;;;18.90;65.20;;;;;;5055004;28;20021;-71
2021/09/05 02:55:00;;;;;;;16.83;6.65;;;18.90;65.20;;;;;;5054949;28;20033;-71
2021/09/05 02:57:25;;;;;;;9.95;6.07;;;18.90;65.20;;;;;;5054943;28;20131;-71
2021/09/05 02:59:51;;;;;;;9.55;6.57;;;18.90;65.20;;;;;;5054891;28;20154;-71
2021/09/05 03:02:17;;;;;;;8.90;5.43;;;18.90;65.20;;;;;;5054899;28;20396;-71
2021/09/05 03:04:42;;;;;;;9.40;6.07;;;18.90;65.30;;;;;;5055081;28;20068;-71
2021/09/05 03:07:08;;;;;;;13.70;6.50;;;18.90;65.20;;;;;;5053411;28;20036;-71
2021/09/05 03:09:34;;;;;;;9.07;5.82;;;18.90;65.20;;;;;;5054738;28;20104;-71
2021/09/05 03:11:59;;;;;;;9.70;6.05;;;18.90;65.20;;;;;;5054665;28;20040;-71
2021/09/05 03:14:25;;;;;;;9.68;6.15;;;18.90;65.30;;;;;;5053427;28;20393;-71
2021/09/05 03:16:50;;;;;;;10.90;6.40;;;18.90;65.30;;;;;;5054648;28;20036;-71
2021/09/05 03:19:16;;;;;;;11.55;6.25;;;18.90;65.30;;;;;;5054331;28;20032;-71
2021/09/05 03:21:41;;;;;;;9.65;6.18;;;18.80;65.30;;;;;;5054398;28;20032;-71
2021/09/05 03:24:08;;;;;;;8.05;5.25;;;18.80;65.30;;;;;;5054242;28;20375;-71
2021/09/05 03:26:34;;;;;;;9.00;5.78;;;18.80;65.30;;;;;;5054360;28;20017;-71
2021/09/05 03:29:01;;;;;;;9.05;5.97;;;18.80;65.30;;;;;;5052994;28;20048;-71
2021/09/05 03:31:26;;;;;;;12.02;6.10;;;18.90;65.30;;;;;;5052896;28;20090;-71
2021/09/05 03:33:52;;;;;;;10.02;6.20;;;18.80;65.30;;;;;;5054160;28;20306;-71
2021/09/05 03:36:17;;;;;;;10.77;5.75;;;18.80;65.40;;;;;;5054128;28;20047;-71
2021/09/05 03:38:43;;;;;;;9.43;5.90;;;18.80;65.40;;;;;;5053962;28;20500;-71
2021/09/05 03:41:08;;;;;;;10.18;6.13;;;18.80;65.30;;;;;;5054081;28;20032;-72
2021/09/05 03:43:34;;;;;;;10.15;6.55;;;18.80;65.30;;;;;;5054015;28;20472;-71
2021/09/05 03:45:59;;;;;;;9.05;6.07;;;18.80;65.40;;;;;;5053977;28;20396;-71
2021/09/05 03:48:25;;;;;;;8.73;5.88;;;18.70;65.40;;;;;;5053993;28;20029;-71
2021/09/05 03:50:50;;;;;;;9.18;5.90;;;18.80;65.40;;;;;;5054297;28;20025;-71
2021/09/05 03:53:16;;;;;;;9.75;5.70;;;18.70;65.40;;;;;;5053888;28;20021;-71
2021/09/05 03:55:42;;;;;;;9.38;5.97;;;18.80;65.40;;;;;;5052791;28;20112;-71
2021/09/05 03:58:07;;;;;;;9.18;5.57;;;18.70;65.40;;;;;;5053527;28;20028;-71
2021/09/05 04:00:33;;;;;;;11.32;6.38;;;18.80;65.40;;;;;;5053811;28;20029;-71
2021/09/05 04:02:59;;;;;;;8.35;5.15;;;18.70;65.40;;;;;;5052316;28;20147;-71
2021/09/05 04:05:25;;;;;;;9.50;5.95;;;18.70;65.40;;;;;;5053614;28;20112;-71
2021/09/05 04:08:14;;;;;;;9.95;6.07;;;18.70;65.40;;;;;;5053837;28;20369;-71
2021/09/05 04:10:37;;;;;;;8.88;5.38;;;18.70;65.40;;;;;;5053335;28;20048;-71
2021/09/05 04:13:05;;;;;;;9.98;6.25;;;18.70;65.40;;;;;;5053443;28;20031;-71
2021/09/05 04:15:31;;;;;;;8.75;5.68;;;18.70;65.40;;;;;;5052107;28;20396;-71
2021/09/05 04:17:57;;;;;;;10.25;6.18;;;18.70;65.40;;;;;;5053405;28;20025;-71
2021/09/05 04:20:24;;;;;;;9.13;5.78;;;18.70;65.50;;;;;;5052111;28;20021;-71
2021/09/05 04:22:49;;;;;;;10.68;5.30;;;18.70;65.40;;;;;;5053304;28;20028;-71
2021/09/05 04:25:16;;;;;;;7.85;5.05;;;18.70;65.40;;;;;;5053321;28;20033;-71
2021/09/05 04:27:41;;;;;;;10.57;6.38;;;18.70;65.50;;;;;;5053279;28;20028;-71
2021/09/05 04:30:10;;;;;;;9.73;6.00;;;18.70;65.40;;;;;;5053166;28;20033;-71
2021/09/05 04:32:36;;;;;;;9.43;5.80;;;18.70;65.40;;;;;;5053136;28;20025;-71
2021/09/05 04:35:02;;;;;;;11.15;6.32;;;18.60;65.40;;;;;;5053453;28;20036;-71
2021/09/05 04:37:27;;;;;;;9.32;5.50;;;18.70;65.50;;;;;;5052985;28;20435;-71
2021/09/05 04:39:53;;;;;;;8.57;5.70;;;18.60;65.50;;;;;;5053154;28;20033;-71
2021/09/05 04:42:19;;;;;;;10.27;6.18;;;18.60;65.50;;;;;;5053004;28;20465;-71
2021/09/05 04:44:45;;;;;;;10.57;6.25;;;18.60;65.40;;;;;;5052930;28;20437;-71
2021/09/05 04:47:11;;;;;;;8.45;5.50;;;18.60;65.40;;;;;;5053164;28;20052;-71
2021/09/05 04:49:37;;;;;;;9.55;5.55;;;18.60;65.40;;;;;;5052917;28;20025;-71
2021/09/05 04:52:03;;;;;;;10.30;5.93;;;18.60;65.40;;;;;;5052904;28;20033;-71
2021/09/05 04:54:29;;;;;;;9.30;5.78;;;18.60;65.40;;;;;;5051659;28;20021;-71
2021/09/05 04:56:55;;;;;;;8.73;5.50;;;18.60;65.50;;;;;;5052858;28;20032;-70
2021/09/05 04:59:21;;;;;;;9.65;5.72;;;18.60;65.50;;;;;;5052787;28;20469;-72
2021/09/05 05:01:46;;;;;;;10.80;6.03;;;18.60;65.50;;;;;;5052779;28;20426;-71
2021/09/05 05:04:12;;;;;;;9.05;5.68;;;18.60;65.40;;;;;;5052748;28;20067;-71
2021/09/05 05:06:41;;;;;;;9.73;5.85;;;18.60;65.40;;;;;;5052873;28;20017;-71
2021/09/05 05:09:11;;;;;;;8.65;5.35;;;18.60;65.40;;;;;;5052731;28;20055;-71
2021/09/05 05:11:38;;;;;;;10.98;6.40;;;18.60;65.50;;;;;;5052256;28;20048;-71
2021/09/05 05:14:03;;;;;;;8.00;5.22;;;18.60;65.40;;;;;;5052667;28;20052;-71
2021/09/05 05:16:29;;;;;;;9.23;5.75;;;18.60;65.50;;;;;;5052934;28;20048;-70
2021/09/05 05:18:55;;;;;;;9.18;5.72;;;18.60;65.40;;;;;;5052904;28;20024;-71
2021/09/05 05:21:22;;;;;;;8.77;5.97;;;18.60;65.40;;;;;;5052644;28;20102;-71
2021/09/05 05:23:47;;;;;;;9.38;6.00;;;18.60;65.40;;;;;;5052542;28;20021;-71
2021/09/05 05:26:13;;;;;;;9.48;5.88;;;18.60;65.40;;;;;;5051478;28;20492;-71
2021/09/05 05:28:38;;;;;;;9.25;5.80;;;18.60;65.40;;;;;;5052908;28;20175;-71
2021/09/05 05:31:04;;;;;;;9.68;5.85;;;18.60;65.30;;;;;;5052510;28;20037;-70
2021/09/05 05:33:30;;;;;;;8.93;5.55;;;18.50;65.40;;;;;;5052778;28;20360;-72
2021/09/05 05:35:55;;;;;;;9.60;5.72;;;18.50;65.40;;;;;;5052460;28;20032;-71
2021/09/05 05:38:21;;;;;;;9.15;5.88;;;18.50;65.30;;;;;;5052275;28;20068;-71
2021/09/05 05:40:46;;;;;;;9.48;5.72;;;18.60;65.40;;;;;;5052327;28;20071;-71
2021/09/05 05:43:12;;;;;;;10.50;6.05;;;18.50;65.40;;;;;;5052332;28;20029;-71
2021/09/05 05:45:37;;;;;;;9.50;5.57;;;18.50;65.40;;;;;;5052262;28;20064;-71
2021/09/05 05:48:03;;;;;;;8.80;5.82;;;18.50;65.40;;;;;;5050976;28;20025;-70
2021/09/05 05:50:29;;;;;;;9.38;6.00;;;18.60;65.40;;;;;;5052229;28;20435;-71
2021/09/05 05:52:54;;;;;;;9.07;5.80;;;18.60;65.30;;;;;;5052320;28;20064;-71
2021/09/05 05:55:20;;;;;;;8.10;5.53;;;18.60;65.30;;;;;;5050943;28;20472;-70
2021/09/05 05:57:45;;;;;;;9.32;5.63;;;18.50;65.30;;;;;;5050937;28;20021;-71
2021/09/05 06:00:12;;;;;;;8.57;5.38;;;18.50;65.30;;;;;;5052161;28;20025;-71
2021/09/05 06:02:37;;;;;;;7.60;5.10;;;18.50;65.30;;;;;;5052048;28;20481;-70
2021/09/05 06:05:03;;;;;;;9.60;5.55;;;18.50;65.40;;;;;;5052116;28;20044;-71
2021/09/05 06:07:29;;;;;;;8.02;5.28;;;18.50;65.30;;;;;;5050860;28;20021;-71
2021/09/05 06:09:54;;;;;;;9.50;5.30;;;18.60;65.20;;;;;;5052100;28;20480;-70
2021/09/05 06:12:20;;;;;;;9.82;5.07;;;18.50;65.20;;;;;;5052360;28;20112;-71
2021/09/05 06:14:45;;;;;;;9.95;5.65;;;18.60;65.30;;;;;;5052185;28;20029;-71
2021/09/05 06:17:11;;;;;;;10.27;5.80;;;18.50;65.20;;;;;;5052084;28;20383;-69
2021/09/05 06:19:37;;;;;;;9.95;5.55;;;18.50;65.20;;;;;;5051937;28;20025;-70
2021/09/05 06:22:03;;;;;;;8.18;5.35;;;18.60;65.20;;;;;;5054194;28;20035;-70
2021/09/05 06:24:29;;;;;;;9.32;5.70;;;18.60;65.20;;;;;;5055381;28;20423;-70
2021/09/05 06:26:54;;;;;;;8.68;5.07;;;18.50;65.20;;;;;;5055505;28;20071;-70
2021/09/05 06:29:20;;;;;;;11.25;5.82;;;18.50;65.20;;;;;;5055433;28;20025;-70
2021/09/05 06:31:45;;;;;;;8.95;5.90;;;18.50;65.20;;;;;;5055386;28;20039;-70
2021/09/05 06:34:11;;;;;;;9.52;5.55;;;18.50;65.20;;;;;;5055277;28;20021;-70
2021/09/05 06:36:36;;;;;;;8.63;5.60;;;18.50;65.20;;;;;;5055558;28;20388;-71
2021/09/05 06:39:02;;;;;;;8.60;5.43;;;18.50;65.20;;;;;;5055056;28;20120;-69
2021/09/05 06:41:29;;;;;;;9.63;5.88;;;18.60;65.10;;;;;;5053953;28;20178;-73
2021/09/05 06:43:58;;;;;;;8.32;5.35;;;18.50;65.20;;;;;;5055173;28;20024;-72
2021/09/05 06:46:24;;;;;;;9.63;5.22;;;18.60;65.10;;;;;;5055323;28;20123;-70
2021/09/05 06:48:50;;;;;;;8.40;5.30;;;18.60;65.10;;;;;;5055105;28;20021;-72
2021/09/05 06:51:16;;;;;;;9.13;4.97;;;18.60;65.10;;;;;;5054982;28;20036;-69
2021/09/05 06:53:42;;;;;;;9.20;6.18;;;18.60;65.10;;;;;;5054904;28;20021;-72
2021/09/05 06:56:09;;;;;;;9.45;5.60;;;18.60;65.10;;;;;;5053603;28;20440;-72
2021/09/05 06:58:34;;;;;;;9.27;5.70;;;18.60;65.00;;;;;;5054872;28;20079;-71
2021/09/05 07:01:00;;;;;;;8.55;5.55;;;18.50;65.00;;;;;;5054790;28;20025;-72
2021/09/05 07:03:25;;;;;;;8.27;5.25;;;18.60;65.00;;;;;;5054785;28;20021;-71
2021/09/05 07:05:51;;;;;;;8.52;4.68;;;18.60;64.90;;;;;;5054699;28;20079;-72
2021/09/05 07:08:16;;;;;;;10.00;5.18;;;18.60;64.90;;;;;;5054687;28;20483;-70
2021/09/05 07:10:42;;;;;;;9.93;6.32;;;18.60;64.80;;;;;;5054903;28;20112;-70
2021/09/05 07:13:07;;;;;;;9.27;5.13;;;18.70;64.80;;;;;;5054580;28;20457;-70
2021/09/05 07:15:36;;;;;;;9.32;5.38;;;18.70;64.80;;;;;;5054805;28;20028;-70
2021/09/05 07:18:02;;;;;;;8.93;5.35;;;18.70;64.70;;;;;;5053434;28;20029;-70
2021/09/05 07:20:28;;;;;;;9.13;5.57;;;18.70;64.70;;;;;;5054805;28;20021;-70
2021/09/05 07:22:55;;;;;;;8.98;5.35;;;18.70;64.70;;;;;;5054392;28;20033;-70
2021/09/05 07:25:21;;;;;;;9.48;5.50;;;18.70;64.60;;;;;;5054255;28;20044;-70
2021/09/05 07:27:47;;;;;;;9.43;5.90;;;18.70;64.60;;;;;;5053041;28;20024;-70
2021/09/05 07:30:13;;;;;;;9.88;6.05;;;18.70;64.50;;;;;;5053075;28;20036;-70
2021/09/05 07:32:39;;;;;;;8.45;4.75;;;18.70;64.50;;;;;;5053959;28;20052;-70
2021/09/05 07:35:06;;;;;;;9.38;5.68;;;18.80;64.40;;;;;;5054248;28;20120;-70
2021/09/05 07:37:31;;;;;;;9.88;5.45;;;18.80;64.40;;;;;;5053800;28;20043;-70
2021/09/05 07:39:57;;;;;;;9.70;5.88;;;18.80;64.40;;;;;;5054014;28;20109;-70
2021/09/05 07:42:22;;;;;;;7.78;4.95;;;18.80;64.40;;;;;;5053978;28;20029;-71
2021/09/05 07:44:49;;;;;;;8.23;5.15;;;18.80;64.40;;;;;;5054178;28;20045;-70
2021/09/05 07:47:15;;;;;;;9.93;4.90;;;18.80;64.30;;;;;;5052666;28;20036;-70
2021/09/05 07:49:40;;;;;;;9.38;5.60;;;18.80;64.30;;;;;;5053946;28;20060;-70
2021/09/05 07:52:06;;;;;;;10.02;5.63;;;18.80;64.20;;;;;;5053850;28;20095;-70
2021/09/05 07:54:31;;;;;;;9.27;5.55;;;18.80;64.20;;;;;;5053881;28;20017;-71
2021/09/05 07:56:57;;;;;;;7.82;4.68;;;18.80;64.10;;;;;;5053728;28;20024;-70
2021/09/05 07:59:22;;;;;;;9.13;5.40;;;18.90;64.00;;;;;;5053897;28;20053;-71
2021/09/05 08:01:48;;;;;;;9.40;5.32;;;18.90;64.00;;;;;;5053561;28;20026;-71
2021/09/05 08:04:13;;;;;;;8.50;5.05;;;18.90;64.00;;;;;;5052253;28;20044;-71
2021/09/05 08:06:39;;;;;;;11.20;6.13;;;18.90;64.00;;;;;;5052115;28;20074;-71
2021/09/05 08:09:04;;;;;;;8.35;5.15;;;18.90;63.90;;;;;;5053493;28;20021;-71
2021/09/05 08:11:30;;;;;;;7.93;4.68;;;18.90;63.90;;;;;;5053451;28;20025;-71
2021/09/05 08:13:55;;;;;;;9.38;5.30;;;19.00;63.90;;;;;;5053507;28;20407;-71
2021/09/05 08:16:21;;;;;;;8.43;4.85;;;18.90;63.80;;;;;;5053497;28;20032;-71
2021/09/05 08:18:46;;;;;;;8.57;5.03;;;19.00;63.80;;;;;;5053356;28;20060;-71
2021/09/05 08:21:12;;;;;;;9.50;5.55;;;18.90;63.90;;;;;;5053223;28;20029;-71
2021/09/05 08:23:38;;;;;;;8.77;5.30;;;19.00;63.80;;;;;;5053252;28;20472;-71
2021/09/05 08:26:05;;;;;;;9.93;5.30;;;19.00;63.70;;;;;;5051850;28;20400;-71
2021/09/05 08:28:31;;;;;;;7.93;5.10;;;19.00;63.70;;;;;;5051923;28;20024;-71
2021/09/05 08:30:57;;;;;;;7.90;4.97;;;19.00;63.60;;;;;;5053125;28;20036;-71
2021/09/05 08:33:23;;;;;;;9.80;5.35;;;19.00;63.60;;;;;;5052874;28;20021;-71
2021/09/05 08:35:48;;;;;;;8.82;4.80;;;19.10;63.60;;;;;;5053051;28;20029;-71
2021/09/05 08:38:14;;;;;;;9.20;4.97;;;19.00;63.60;;;;;;5052842;28;20044;-71
2021/09/05 08:40:42;;;;;;;9.05;5.65;;;19.00;63.60;;;;;;5053006;28;20021;-70
2021/09/05 08:43:09;;;;;;;8.43;4.80;;;19.10;63.60;;;;;;5052956;28;20035;-71
2021/09/05 08:45:36;;;;;;;8.15;4.75;;;19.10;63.60;;;;;;5051856;28;20044;-71
2021/09/05 08:48:04;;;;;;;7.78;4.63;;;19.00;63.60;;;;;;5052901;28;20036;-71
2021/09/05 08:50:30;;;;;;;9.48;5.38;;;19.10;63.60;;;;;;5052786;28;20024;-71
2021/09/05 08:52:56;;;;;;;8.75;5.18;;;19.10;63.50;;;;;;5052973;28;20144;-71
2021/09/05 08:55:22;;;;;;;9.13;5.10;;;19.10;63.50;;;;;;5052936;28;20155;-71
2021/09/05 08:57:48;;;;;;;7.97;5.00;;;19.10;63.50;;;;;;5051513;28;20028;-71
2021/09/05 09:00:13;;;;;;;8.50;5.70;;;19.10;63.40;;;;;;5052673;28;20033;-71
2021/09/05 09:02:50;;;;;;;8.02;5.20;;;19.10;63.40;;;;;;5053151;28;20344;-71
2021/09/05 09:05:38;;;;;;;10.20;5.43;;;19.10;63.40;;;;;;5051238;28;20044;-71
2021/09/05 09:08:09;;;;;;;8.80;5.13;;;19.10;63.50;;;;;;5052903;28;20021;-71
2021/09/05 09:10:52;;;;;;;8.02;4.75;;;19.10;63.40;;;;;;5051280;28;20080;-71
2021/09/05 09:13:22;;;;;;;8.50;5.18;;;19.10;63.50;;;;;;5052477;28;20118;-71
2021/09/05 09:15:48;;;;;;;8.27;5.18;;;19.10;63.40;;;;;;5051111;28;20025;-71
2021/09/05 09:18:13;;;;;;;9.45;5.05;;;19.10;63.50;;;;;;5051164;28;20025;-71
2021/09/05 09:20:42;;;;;;;8.88;5.38;;;19.10;63.50;;;;;;5052444;28;20104;-71
2021/09/05 09:23:12;;;;;;;7.93;4.97;;;19.20;63.50;;;;;;5052712;28;20032;-71
2021/09/05 09:25:49;;;;;;;8.15;4.97;;;19.10;63.50;;;;;;5052429;28;20033;-71
2021/09/05 09:28:25;;;;;;;7.28;4.63;;;19.10;63.50;;;;;;5052334;28;20036;-71
2021/09/05 09:30:51;;;;;;;8.52;5.18;;;19.20;63.50;;;;;;5052429;28;20021;-70
2021/09/05 09:33:20;;;;;;;8.75;5.07;;;19.20;63.40;;;;;;5052306;28;20439;-71
2021/09/05 09:35:48;;;;;;;8.50;4.95;;;19.20;63.40;;;;;;5052463;28;20107;-71
2021/09/05 09:38:15;;;;;;;7.53;4.85;;;19.20;63.40;;;;;;5052100;28;20048;-71
2021/09/05 09:40:41;;;;;;;7.80;4.65;;;19.20;63.30;;;;;;5052232;28;20028;-71
2021/09/05 09:43:22;;;;;;;7.43;4.65;;;19.30;63.30;;;;;;5052284;28;20044;-71
2021/09/05 09:45:49;;;;;;;8.73;4.95;;;19.20;63.40;;;;;;5052450;28;20069;-71
2021/09/05 09:48:23;;;;;;;7.30;4.32;;;19.20;63.30;;;;;;5052197;28;20435;-71
2021/09/05 09:50:49;;;;;;;7.82;4.72;;;19.20;63.30;;;;;;5052202;28;20033;-71
2021/09/05 09:53:14;;;;;;;8.20;5.25;;;19.20;63.40;;;;;;5052283;28;20079;-71
2021/09/05 09:55:41;;;;;;;8.07;4.88;;;19.30;63.30;;;;;;5052299;28;20029;-70
2021/09/05 09:58:07;;;;;;;7.68;4.72;;;19.30;63.30;;;;;;5056276;28;20037;-71
2021/09/05 10:00:33;;;;;;;7.18;4.53;;;19.30;63.20;;;;;;5056157;28;20555;-71
2021/09/05 10:03:00;;;;;;;8.15;4.63;;;19.30;63.20;;;;;;5055970;28;20033;-71
2021/09/05 10:05:27;;;;;;;8.00;4.57;;;19.30;63.10;;;;;;5055584;28;20040;-71
2021/09/05 10:07:56;;;;;;;7.53;4.47;;;19.30;63.10;;;;;;5055813;28;20067;-72
2021/09/05 10:10:23;;;;;;;8.85;5.25;;;19.40;63.10;;;;;;5055808;28;20131;-71
2021/09/05 10:12:51;;;;;;;7.68;4.70;;;19.30;63.20;;;;;;5055907;28;20056;-71
2021/09/05 10:15:18;;;;;;;8.25;4.97;;;19.40;63.10;;;;;;5055718;28;20052;-70
2021/09/05 10:17:44;;;;;;;8.40;5.00;;;19.40;63.10;;;;;;5055542;28;20500;-69
2021/09/05 10:20:11;;;;;;;9.32;5.40;;;19.50;63.10;;;;;;5055685;28;20393;-71
2021/09/05 10:22:37;;;;;;;8.32;4.65;;;19.50;63.10;;;;;;5055753;28;20025;-69
2021/09/05 10:25:05;;;;;;;8.20;4.22;;;19.50;63.10;;;;;;5054189;28;20029;-72
2021/09/05 10:27:34;;;;;;;7.60;4.10;;;19.50;63.00;;;;;;5054193;28;20381;-69
2021/09/05 10:30:08;;;;;;;7.43;4.70;;;19.50;63.00;;;;;;5055415;28;20059;-70
2021/09/05 10:32:59;;;;;;;8.25;4.60;;;19.50;62.90;;;;;;5055344;28;20469;-70
2021/09/05 10:35:25;;;;;;;7.40;4.38;;;19.50;62.90;;;;;;5055350;28;20390;-71
2021/09/05 10:38:10;;;;;;;8.90;4.85;;;19.50;62.90;;;;;;5053797;28;20045;-70
2021/09/05 10:40:56;;;;;;;7.95;4.82;;;19.50;62.90;;;;;;5055056;28;20021;-72
2021/09/05 10:43:23;;;;;;;8.10;5.03;;;19.60;62.80;;;;;;5055032;28;20199;-72
2021/09/05 10:45:54;;;;;;;8.23;4.45;;;19.60;62.80;;;;;;5054992;28;20032;-71
2021/09/05 10:48:37;;;;;;;9.10;5.60;;;19.60;62.80;;;;;;5054988;28;20048;-71
2021/09/05 10:51:07;;;;;;;9.27;4.70;;;19.70;62.80;;;;;;5053807;28;20035;-71
2021/09/05 10:53:47;;;;;;;8.50;4.65;;;19.70;62.70;;;;;;5055238;28;20036;-71
2021/09/05 10:56:22;;;;;;;8.63;5.07;;;19.70;62.70;;;;;;5054839;28;20039;-71
2021/09/05 10:58:55;;;;;;;8.93;5.63;;;19.80;62.70;;;;;;5054953;28;20024;-72
2021/09/05 11:01:48;;;;;;;7.35;4.35;;;19.70;62.60;;;;;;5054853;28;20488;-71
2021/09/05 11:04:16;;;;;;;8.45;4.88;;;19.80;62.60;;;;;;5053275;28;20457;-71
2021/09/05 11:06:47;;;;;;;9.52;4.97;;;19.80;62.60;;;;;;5053345;28;20017;-71
2021/09/05 11:09:19;;;;;;;8.00;4.82;;;19.80;62.60;;;;;;5053793;28;20025;-71
2021/09/05 11:12:06;;;;;;;9.38;4.57;;;19.90;62.50;;;;;;5054652;28;20049;-71
2021/09/05 11:14:35;;;;;;;8.85;4.72;;;19.90;62.50;;;;;;5053322;28;20032;-71
2021/09/05 11:17:07;;;;;;;8.55;4.82;;;20.00;62.40;;;;;;5054559;28;20040;-71
2021/09/05 11:19:45;;;;;;;8.85;5.18;;;20.00;62.40;;;;;;5054397;28;20041;-71
2021/09/05 11:22:13;;;;;;;8.27;4.85;;;20.00;62.40;;;;;;5054448;28;20024;-70
2021/09/05 11:24:39;;;;;;;8.00;4.68;;;20.10;62.40;;;;;;5054286;28;20029;-69
2021/09/05 11:27:08;;;;;;;7.75;4.72;;;20.10;62.30;;;;;;5054250;28;20073;-69
2021/09/05 11:29:34;;;;;;;7.88;4.93;;;20.10;62.20;;;;;;5052890;28;20017;-69
2021/09/05 11:32:05;;;;;;;10.63;5.22;;;20.20;62.20;;;;;;5054193;28;20029;-70
2021/09/05 11:34:34;;;;;;;8.82;5.22;;;20.20;62.10;;;;;;5054216;28;20492;-70
2021/09/05 11:37:01;;;;;;;8.82;4.97;;;20.30;61.90;;;;;;5053916;28;20503;-69
2021/09/05 11:39:27;;;;;;;8.20;5.03;;;20.30;62.00;;;;;;5054065;28;20041;-69
2021/09/05 11:42:01;;;;;;;8.52;4.93;;;20.40;61.90;;;;;;5053944;28;20055;-71
2021/09/05 11:44:32;;;;;;;7.63;4.72;;;20.40;61.90;;;;;;5052596;28;20380;-69
2021/09/05 11:47:17;;;;;;;8.50;5.25;;;20.40;61.80;;;;;;5052590;28;20033;-70
2021/09/05 11:49:50;;;;;;;8.52;4.72;;;20.50;61.70;;;;;;5053893;28;20115;-70
2021/09/05 11:52:20;;;;;;;8.32;4.97;;;20.50;61.70;;;;;;5053774;28;20033;-70
2021/09/05 11:54:49;;;;;;;8.45;5.20;;;20.60;61.60;;;;;;5052343;28;20367;-70
2021/09/05 11:57:15;;;;;;;7.72;4.72;;;20.60;61.50;;;;;;5053531;28;20025;-70
2021/09/05 11:59:41;;;;;;;7.88;4.63;;;20.70;61.40;;;;;;5053890;28;20025;-70
2021/09/05 12:02:07;;;;;;;8.02;5.10;;;20.80;61.30;;;;;;5053502;28;20073;-69
2021/09/05 12:04:34;;;;;;;7.90;4.60;;;20.80;61.10;;;;;;5053494;28;20033;-70
2021/09/05 12:07:02;;;;;;;8.30;5.05;;;20.90;61.00;;;;;;5053565;28;20479;-70
2021/09/05 12:09:29;;;;;;;8.73;4.82;;;20.90;61.00;;;;;;5053281;28;20032;-70
2021/09/05 12:12:05;;;;;;;8.98;5.60;;;21.00;60.90;;;;;;5053467;28;20028;-70
2021/09/05 12:14:38;;;;;;;6.60;4.63;;;21.00;60.80;;;;;;5052071;28;20108;-70
2021/09/05 12:17:21;;;;;;;8.02;4.85;;;21.10;60.70;;;;;;5053700;28;20090;-70
2021/09/05 12:20:13;;;;;;;7.30;4.43;;;21.10;60.70;;;;;;5053045;28;20597;-70
2021/09/05 12:22:53;;;;;;;7.82;4.90;;;21.20;60.60;;;;;;5052170;28;20044;-70
2021/09/05 12:25:39;;;;;;;7.95;4.40;;;21.20;60.50;;;;;;5053311;28;20392;-71
2021/09/05 12:28:09;;;;;;;7.60;4.80;;;21.30;60.30;;;;;;5053183;28;20033;-70
2021/09/05 12:30:36;;;;;;;9.52;5.30;;;21.40;60.20;;;;;;5051845;28;20116;-70
2021/09/05 12:33:13;;;;;;;8.10;4.80;;;21.50;60.10;;;;;;5053161;28;20407;-70
2021/09/05 12:35:50;;;;;;;9.40;4.75;;;21.50;60.00;;;;;;5052730;28;20021;-70
2021/09/05 12:38:21;;;;;;;9.25;5.32;;;21.50;60.00;;;;;;5052773;28;20128;-69
2021/09/05 12:40:48;;;;;;;7.60;4.88;;;21.60;59.80;;;;;;5052791;28;20481;-70
2021/09/05 12:43:14;;;;;;;7.63;4.22;;;21.70;59.80;;;;;;5052749;28;20039;-70
2021/09/05 12:45:54;;;;;;;7.63;4.80;;;21.80;59.60;;;;;;5053017;28;20426;-70
2021/09/05 12:48:22;;;;;;;7.55;4.47;;;21.80;59.40;;;;;;5052826;28;20104;-70